sensor_id;sensor_type;location;lat;lon;timestamp;pressure;altitude;pressure_sealevel;temperature;humidity
78073;BME280;67281;48.770;11.440;2023-05-16T00:02:03;96818.09;;;19.66;47.96
78073;BME280;67281;48.770;11.440;2023-05-16T00:04:31;96809.31;;;19.65;48.19
78073;BME280;67281;48.770;11.440;2023-05-16T00:06:58;96809.31;;;19.65;47.57
78073;BME280;67281;48.770;11.440;2023-05-16T00:09:25;96816.63;;;19.63;47.57
78073;BME280;67281;48.770;11.440;2023-05-16T00:11:52;96807.00;;;19.62;47.29
78073;BME280;67281;48.770;11.440;2023-05-16T00:14:18;96809.84;;;19.61;47.63
78073;BME280;67281;48.770;11.440;2023-05-16T00:16:46;96804.50;;;19.61;48.03
78073;BME280;67281;48.770;11.440;2023-05-16T00:19:13;96816.97;;;19.60;47.67
78073;BME280;67281;48.770;11.440;2023-05-16T00:21:41;96814.31;;;19.60;48.11
78073;BME280;67281;48.770;11.440;2023-05-16T00:24:08;96812.66;;;19.59;48.02
78073;BME280;67281;48.770;11.440;2023-05-16T00:26:35;96813.66;;;19.58;47.55
78073;BME280;67281;48.770;11.440;2023-05-16T00:29:01;96811.19;;;19.57;47.53
78073;BME280;67281;48.770;11.440;2023-05-16T00:31:28;96793.56;;;19.56;47.97
78073;BME280;67281;48.770;11.440;2023-05-16T00:33:55;96806.03;;;19.55;48.12
78073;BME280;67281;48.770;11.440;2023-05-16T00:36:22;96795.41;;;19.55;47.53
78073;BME280;67281;48.770;11.440;2023-05-16T00:38:49;96808.03;;;19.53;47.73
78073;BME280;67281;48.770;11.440;2023-05-16T00:41:16;96808.22;;;19.52;48.09
78073;BME280;67281;48.770;11.440;2023-05-16T00:43:43;96810.69;;;19.53;48.08
78073;BME280;67281;48.770;11.440;2023-05-16T00:46:10;96805.56;;;19.52;47.73
78073;BME280;67281;48.770;11.440;2023-05-16T00:48:37;96806.53;;;19.51;48.19
78073;BME280;67281;48.770;11.440;2023-05-16T00:51:05;96809.34;;;19.49;47.44
78073;BME280;67281;48.770;11.440;2023-05-16T00:53:35;96805.88;;;19.49;47.98
78073;BME280;67281;48.770;11.440;2023-05-16T00:56:04;96804.22;;;19.48;47.42
78073;BME280;67281;48.770;11.440;2023-05-16T00:58:31;96806.03;;;19.47;48.07
78073;BME280;67281;48.770;11.440;2023-05-16T01:00:59;96801.91;;;19.45;48.11
78073;BME280;67281;48.770;11.440;2023-05-16T01:03:29;96799.59;;;19.42;47.87
78073;BME280;67281;48.770;11.440;2023-05-16T01:05:57;96805.56;;;19.44;47.61
78073;BME280;67281;48.770;11.440;2023-05-16T01:08:24;96804.25;;;19.40;48.13
78073;BME280;67281;48.770;11.440;2023-05-16T01:16:45;96790.97;;;19.40;47.79
78073;BME280;67281;48.770;11.440;2023-05-16T01:22:17;96796.44;;;19.38;47.42
78073;BME280;67281;48.770;11.440;2023-05-16T01:27:34;96794.16;;;19.35;47.96
78073;BME280;67281;48.770;11.440;2023-05-16T01:30:12;96788.66;;;19.36;48.01
78073;BME280;67281;48.770;11.440;2023-05-16T01:32:40;96788.84;;;19.35;47.28
78073;BME280;67281;48.770;11.440;2023-05-16T01:35:09;96790.50;;;19.36;47.68
78073;BME280;67281;48.770;11.440;2023-05-16T01:37:46;96795.81;;;19.36;47.60
78073;BME280;67281;48.770;11.440;2023-05-16T01:43:13;96796.81;;;19.35;47.94
78073;BME280;67281;48.770;11.440;2023-05-16T01:45:46;96797.97;;;19.32;47.37
78073;BME280;67281;48.770;11.440;2023-05-16T01:48:21;96787.56;;;19.31;47.95
78073;BME280;67281;48.770;11.440;2023-05-16T01:50:54;96790.22;;;19.31;47.85
78073;BME280;67281;48.770;11.440;2023-05-16T01:53:28;96793.22;;;19.28;48.04
78073;BME280;67281;48.770;11.440;2023-05-16T01:56:00;96785.41;;;19.26;47.62
78073;BME280;67281;48.770;11.440;2023-05-16T01:58:30;96785.25;;;19.28;47.44
78073;BME280;67281;48.770;11.440;2023-05-16T02:01:02;96780.94;;;19.27;47.34
78073;BME280;67281;48.770;11.440;2023-05-16T02:03:30;96784.25;;;19.29;47.34
78073;BME280;67281;48.770;11.440;2023-05-16T02:05:57;96788.06;;;19.26;47.76
78073;BME280;67281;48.770;11.440;2023-05-16T02:08:24;96774.97;;;19.25;47.46
78073;BME280;67281;48.770;11.440;2023-05-16T02:10:52;96784.59;;;19.26;47.96
78073;BME280;67281;48.770;11.440;2023-05-16T02:13:18;96781.09;;;19.25;47.32
78073;BME280;67281;48.770;11.440;2023-05-16T02:15:45;96774.97;;;19.25;47.75
78073;BME280;67281;48.770;11.440;2023-05-16T02:18:12;96776.97;;;19.23;47.86
78073;BME280;67281;48.770;11.440;2023-05-16T02:20:39;96776.13;;;19.22;47.76
78073;BME280;67281;48.770;11.440;2023-05-16T02:23:06;96771.66;;;19.23;47.56
78073;BME280;67281;48.770;11.440;2023-05-16T02:25:32;96774.31;;;19.23;47.61
78073;BME280;67281;48.770;11.440;2023-05-16T02:27:59;96776.47;;;19.19;47.93
78073;BME280;67281;48.770;11.440;2023-05-16T02:30:26;96773.00;;;19.19;48.03
78073;BME280;67281;48.770;11.440;2023-05-16T02:32:53;96776.47;;;19.19;47.31
78073;BME280;67281;48.770;11.440;2023-05-16T02:35:20;96769.34;;;19.20;47.45
78073;BME280;67281;48.770;11.440;2023-05-16T02:37:47;96777.47;;;19.18;47.97
78073;BME280;67281;48.770;11.440;2023-05-16T02:40:14;96776.00;;;19.16;47.61
78073;BME280;67281;48.770;11.440;2023-05-16T02:42:41;96775.00;;;19.17;47.88
78073;BME280;67281;48.770;11.440;2023-05-16T02:45:08;96770.84;;;19.14;47.38
78073;BME280;67281;48.770;11.440;2023-05-16T02:47:34;96779.66;;;19.15;47.62
78073;BME280;67281;48.770;11.440;2023-05-16T02:50:02;96784.13;;;19.14;47.64
78073;BME280;67281;48.770;11.440;2023-05-16T02:52:29;96783.13;;;19.15;47.52
78073;BME280;67281;48.770;11.440;2023-05-16T02:54:56;96780.31;;;19.17;47.45
78073;BME280;67281;48.770;11.440;2023-05-16T02:57:42;96787.78;;;19.13;47.46
78073;BME280;67281;48.770;11.440;2023-05-16T03:00:10;96784.13;;;19.14;47.86
78073;BME280;67281;48.770;11.440;2023-05-16T03:02:37;96773.03;;;19.11;47.51
78073;BME280;67281;48.770;11.440;2023-05-16T03:05:04;96771.19;;;19.11;47.45
78073;BME280;67281;48.770;11.440;2023-05-16T03:07:31;96780.81;;;19.12;47.45
78073;BME280;67281;48.770;11.440;2023-05-16T03:09:58;96776.69;;;19.10;47.47
78073;BME280;67281;48.770;11.440;2023-05-16T03:12:25;96780.50;;;19.07;47.53
78073;BME280;67281;48.770;11.440;2023-05-16T03:14:52;96785.81;;;19.07;47.54
78073;BME280;67281;48.770;11.440;2023-05-16T03:17:19;96786.81;;;19.06;47.88
78073;BME280;67281;48.770;11.440;2023-05-16T03:19:46;96790.31;;;19.07;47.57
78073;BME280;67281;48.770;11.440;2023-05-16T03:22:13;96788.66;;;19.06;47.62
78073;BME280;67281;48.770;11.440;2023-05-16T03:24:40;96799.28;;;19.06;47.94
78073;BME280;67281;48.770;11.440;2023-05-16T03:27:07;96799.09;;;19.07;47.83
78073;BME280;67281;48.770;11.440;2023-05-16T03:29:33;96796.94;;;19.02;47.29
78073;BME280;67281;48.770;11.440;2023-05-16T03:32:00;96797.63;;;19.04;47.83
78073;BME280;67281;48.770;11.440;2023-05-16T03:34:27;96801.28;;;19.03;47.14
78073;BME280;67281;48.770;11.440;2023-05-16T03:36:54;96793.47;;;19.02;47.76
78073;BME280;67281;48.770;11.440;2023-05-16T03:39:21;96798.63;;;19.03;47.04
78073;BME280;67281;48.770;11.440;2023-05-16T03:41:48;96798.78;;;19.02;47.50
78073;BME280;67281;48.770;11.440;2023-05-16T03:44:15;96797.94;;;19.01;47.30
78073;BME280;67281;48.770;11.440;2023-05-16T03:46:41;96796.47;;;18.99;47.40
78073;BME280;67281;48.770;11.440;2023-05-16T03:49:08;96808.91;;;18.98;47.22
78073;BME280;67281;48.770;11.440;2023-05-16T03:51:35;96810.91;;;18.96;47.49
78073;BME280;67281;48.770;11.440;2023-05-16T03:54:02;96809.91;;;18.97;47.13
78073;BME280;67281;48.770;11.440;2023-05-16T03:56:28;96808.09;;;18.98;47.46
78073;BME280;67281;48.770;11.440;2023-05-16T03:58:55;96803.59;;;18.98;47.60
78073;BME280;67281;48.770;11.440;2023-05-16T04:01:22;96809.91;;;18.97;47.47
78073;BME280;67281;48.770;11.440;2023-05-16T04:03:49;96807.25;;;18.97;47.49
78073;BME280;67281;48.770;11.440;2023-05-16T04:06:16;96801.94;;;18.97;47.41
78073;BME280;67281;48.770;11.440;2023-05-16T04:08:43;96807.91;;;18.99;47.40
78073;BME280;67281;48.770;11.440;2023-05-16T04:11:10;96810.56;;;18.99;47.14
78073;BME280;67281;48.770;11.440;2023-05-16T04:13:37;96809.91;;;18.97;47.64
78073;BME280;67281;48.770;11.440;2023-05-16T04:16:05;96801.28;;;18.95;47.69
78073;BME280;67281;48.770;11.440;2023-05-16T04:18:32;96813.75;;;18.95;47.72
78073;BME280;67281;48.770;11.440;2023-05-16T04:20:58;96812.09;;;18.94;47.22
78073;BME280;67281;48.770;11.440;2023-05-16T04:23:25;96811.91;;;18.95;47.22
78073;BME280;67281;48.770;11.440;2023-05-16T04:25:52;96809.59;;;18.92;47.42
78073;BME280;67281;48.770;11.440;2023-05-16T04:28:20;96819.38;;;18.92;47.32
78073;BME280;67281;48.770;11.440;2023-05-16T04:30:47;96817.56;;;18.92;47.62
78073;BME280;67281;48.770;11.440;2023-05-16T04:33:14;96810.59;;;18.91;47.21
78073;BME280;67281;48.770;11.440;2023-05-16T04:35:42;96811.91;;;18.95;47.06
78073;BME280;67281;48.770;11.440;2023-05-16T04:38:09;96820.03;;;18.94;47.63
78073;BME280;67281;48.770;11.440;2023-05-16T04:40:36;96812.91;;;18.94;47.52
78073;BME280;67281;48.770;11.440;2023-05-16T04:43:03;96804.63;;;18.89;46.94
78073;BME280;67281;48.770;11.440;2023-05-16T04:45:30;96801.63;;;18.92;47.16
78073;BME280;67281;48.770;11.440;2023-05-16T04:47:57;96802.63;;;18.91;47.54
78073;BME280;67281;48.770;11.440;2023-05-16T04:50:26;96792.00;;;18.91;47.30
78073;BME280;67281;48.770;11.440;2023-05-16T04:52:53;96789.34;;;18.91;47.43
78073;BME280;67281;48.770;11.440;2023-05-16T04:55:40;96792.84;;;18.92;47.48
78073;BME280;67281;48.770;11.440;2023-05-16T04:58:26;96804.47;;;18.91;47.26
78073;BME280;67281;48.770;11.440;2023-05-16T05:00:53;96797.81;;;18.87;47.57
78073;BME280;67281;48.770;11.440;2023-05-16T05:03:21;96795.16;;;18.87;46.97
78073;BME280;67281;48.770;11.440;2023-05-16T05:05:48;96796.81;;;18.88;47.25
78073;BME280;67281;48.770;11.440;2023-05-16T05:08:14;96803.31;;;18.85;47.15
78073;BME280;67281;48.770;11.440;2023-05-16T05:11:00;96810.28;;;18.86;46.95
78073;BME280;67281;48.770;11.440;2023-05-16T05:13:27;96805.31;;;18.83;47.47
78073;BME280;67281;48.770;11.440;2023-05-16T05:15:54;96802.66;;;18.83;47.26
78073;BME280;67281;48.770;11.440;2023-05-16T05:18:21;96801.47;;;18.86;47.40
78073;BME280;67281;48.770;11.440;2023-05-16T05:20:49;96802.66;;;18.83;46.82
78073;BME280;67281;48.770;11.440;2023-05-16T05:23:15;96813.94;;;18.85;46.69
78073;BME280;67281;48.770;11.440;2023-05-16T05:25:42;96808.63;;;18.85;47.50
78073;BME280;67281;48.770;11.440;2023-05-16T05:28:10;96811.44;;;18.84;47.14
78073;BME280;67281;48.770;11.440;2023-05-16T05:30:36;96812.09;;;18.86;47.05
78073;BME280;67281;48.770;11.440;2023-05-16T05:33:05;96813.59;;;18.88;46.75
78073;BME280;67281;48.770;11.440;2023-05-16T05:35:32;96809.75;;;18.91;46.85
78073;BME280;67281;48.770;11.440;2023-05-16T05:37:59;96809.59;;;18.92;47.15
78073;BME280;67281;48.770;11.440;2023-05-16T05:40:25;96806.13;;;18.92;46.55
78073;BME280;67281;48.770;11.440;2023-05-16T05:42:52;96812.09;;;18.94;46.86
78073;BME280;67281;48.770;11.440;2023-05-16T05:45:19;96808.44;;;18.95;46.80
78073;BME280;67281;48.770;11.440;2023-05-16T05:47:46;96805.59;;;18.96;46.85
78073;BME280;67281;48.770;11.440;2023-05-16T05:50:13;96800.28;;;18.96;46.93
78073;BME280;67281;48.770;11.440;2023-05-16T05:52:41;96815.06;;;18.99;46.94
78073;BME280;67281;48.770;11.440;2023-05-16T05:55:08;96819.19;;;19.01;46.36
78073;BME280;67281;48.770;11.440;2023-05-16T05:57:34;96811.22;;;19.01;46.65
78073;BME280;67281;48.770;11.440;2023-05-16T06:00:01;96806.56;;;19.03;46.50
78073;BME280;67281;48.770;11.440;2023-05-16T06:02:28;96809.72;;;19.07;46.55
78073;BME280;67281;48.770;11.440;2023-05-16T06:04:55;96812.53;;;19.06;46.77
78073;BME280;67281;48.770;11.440;2023-05-16T06:07:22;96816.84;;;19.07;46.58
78073;BME280;67281;48.770;11.440;2023-05-16T06:09:49;96813.53;;;19.04;46.66
78073;BME280;67281;48.770;11.440;2023-05-16T06:12:15;96812.53;;;19.06;46.48
78073;BME280;67281;48.770;11.440;2023-05-16T06:14:43;96814.38;;;19.05;47.03
78073;BME280;67281;48.770;11.440;2023-05-16T06:17:09;96813.38;;;19.06;47.11
78073;BME280;67281;48.770;11.440;2023-05-16T06:19:36;96807.88;;;19.08;46.48
78073;BME280;67281;48.770;11.440;2023-05-16T06:22:03;96817.50;;;19.09;46.36
78073;BME280;67281;48.770;11.440;2023-05-16T06:24:30;96818.19;;;19.11;46.34
78073;BME280;67281;48.770;11.440;2023-05-16T06:26:57;96820.66;;;19.12;46.37
78073;BME280;67281;48.770;11.440;2023-05-16T06:29:24;96811.88;;;19.12;46.56
78073;BME280;67281;48.770;11.440;2023-05-16T06:31:51;96823.16;;;19.14;46.67
78073;BME280;67281;48.770;11.440;2023-05-16T06:34:18;96823.97;;;19.14;46.94
78073;BME280;67281;48.770;11.440;2023-05-16T06:36:46;96819.31;;;19.16;46.63
78073;BME280;67281;48.770;11.440;2023-05-16T06:39:13;96820.97;;;19.17;46.31
78073;BME280;67281;48.770;11.440;2023-05-16T06:41:39;96815.50;;;19.19;46.37
78073;BME280;67281;48.770;11.440;2023-05-16T06:44:07;96810.84;;;19.21;46.22
78073;BME280;67281;48.770;11.440;2023-05-16T06:46:34;96819.47;;;19.23;46.95
78073;BME280;67281;48.770;11.440;2023-05-16T06:49:01;96815.16;;;19.22;46.48
78073;BME280;67281;48.770;11.440;2023-05-16T06:51:27;96819.81;;;19.20;46.54
78073;BME280;67281;48.770;11.440;2023-05-16T06:53:56;96809.00;;;19.21;46.85
78073;BME280;67281;48.770;11.440;2023-05-16T06:56:23;96824.94;;;19.21;46.58
78073;BME280;67281;48.770;11.440;2023-05-16T06:58:50;96824.78;;;19.23;46.88
78073;BME280;67281;48.770;11.440;2023-05-16T07:01:17;96821.28;;;19.22;46.15
78073;BME280;67281;48.770;11.440;2023-05-16T07:03:43;96825.44;;;19.25;46.61
78073;BME280;67281;48.770;11.440;2023-05-16T07:06:11;96819.94;;;19.26;46.13
78073;BME280;67281;48.770;11.440;2023-05-16T07:08:37;96810.81;;;19.29;46.58
78073;BME280;67281;48.770;11.440;2023-05-16T07:11:04;96817.78;;;19.30;45.92
78073;BME280;67281;48.770;11.440;2023-05-16T07:13:31;96816.94;;;19.29;46.04
78073;BME280;67281;48.770;11.440;2023-05-16T07:16:01;96821.44;;;19.29;46.23
78073;BME280;67281;48.770;11.440;2023-05-16T07:18:28;96829.41;;;19.29;46.43
78073;BME280;67281;48.770;11.440;2023-05-16T07:20:55;96831.06;;;19.30;46.00
78073;BME280;67281;48.770;11.440;2023-05-16T07:23:22;96831.69;;;19.32;46.42
78073;BME280;67281;48.770;11.440;2023-05-16T07:25:49;96836.00;;;19.33;46.50
78073;BME280;67281;48.770;11.440;2023-05-16T07:28:15;96833.34;;;19.33;46.07
78073;BME280;67281;48.770;11.440;2023-05-16T07:30:42;96838.66;;;19.33;46.08
78073;BME280;67281;48.770;11.440;2023-05-16T07:33:10;96836.00;;;19.33;46.02
78073;BME280;67281;48.770;11.440;2023-05-16T07:35:37;96836.81;;;19.33;46.51
78073;BME280;67281;48.770;11.440;2023-05-16T07:38:04;96839.97;;;19.37;46.62
78073;BME280;67281;48.770;11.440;2023-05-16T07:40:31;96832.00;;;19.37;46.08
78073;BME280;67281;48.770;11.440;2023-05-16T07:42:58;96820.38;;;19.38;46.56
78073;BME280;67281;48.770;11.440;2023-05-16T07:45:25;96820.19;;;19.40;46.24
78073;BME280;67281;48.770;11.440;2023-05-16T07:47:52;96823.50;;;19.42;46.46
78073;BME280;67281;48.770;11.440;2023-05-16T07:50:19;96821.84;;;19.41;46.29
78073;BME280;67281;48.770;11.440;2023-05-16T07:52:46;96821.69;;;19.42;46.03
78073;BME280;67281;48.770;11.440;2023-05-16T07:55:13;96828.66;;;19.43;46.41
78073;BME280;67281;48.770;11.440;2023-05-16T07:57:40;96817.19;;;19.43;46.07
78073;BME280;67281;48.770;11.440;2023-05-16T08:00:07;96818.03;;;19.43;46.64
78073;BME280;67281;48.770;11.440;2023-05-16T08:02:35;96820.03;;;19.41;46.10
78073;BME280;67281;48.770;11.440;2023-05-16T08:05:02;96828.00;;;19.41;46.37
78073;BME280;67281;48.770;11.440;2023-05-16T08:07:29;96822.50;;;19.43;46.12
78073;BME280;67281;48.770;11.440;2023-05-16T08:09:56;96823.34;;;19.43;46.38
78073;BME280;67281;48.770;11.440;2023-05-16T08:12:23;96823.34;;;19.43;46.05
78073;BME280;67281;48.770;11.440;2023-05-16T08:14:50;96818.84;;;19.44;46.37
78073;BME280;67281;48.770;11.440;2023-05-16T08:17:17;96826.66;;;19.45;46.47
78073;BME280;67281;48.770;11.440;2023-05-16T08:19:44;96826.66;;;19.45;46.81
78073;BME280;67281;48.770;11.440;2023-05-16T08:22:11;96829.97;;;19.47;46.49
78073;BME280;67281;48.770;11.440;2023-05-16T08:24:38;96825.47;;;19.48;46.21
78073;BME280;67281;48.770;11.440;2023-05-16T08:27:05;96826.13;;;19.50;46.52
78073;BME280;67281;48.770;11.440;2023-05-16T08:29:32;96835.75;;;19.51;46.87
78073;BME280;67281;48.770;11.440;2023-05-16T08:31:59;96836.44;;;19.53;46.82
78073;BME280;67281;48.770;11.440;2023-05-16T08:34:29;96841.59;;;19.54;46.50
78073;BME280;67281;48.770;11.440;2023-05-16T08:36:57;96839.09;;;19.53;46.86
78073;BME280;67281;48.770;11.440;2023-05-16T08:39:23;96844.25;;;19.54;46.19
78073;BME280;67281;48.770;11.440;2023-05-16T08:41:51;96844.06;;;19.56;47.02
78073;BME280;67281;48.770;11.440;2023-05-16T08:44:19;96846.56;;;19.57;46.39
78073;BME280;67281;48.770;11.440;2023-05-16T08:47:10;96836.94;;;19.56;46.97
78073;BME280;67281;48.770;11.440;2023-05-16T08:49:40;96849.03;;;19.59;46.66
78073;BME280;67281;48.770;11.440;2023-05-16T08:52:10;96849.22;;;19.57;46.50
78073;BME280;67281;48.770;11.440;2023-05-16T08:54:38;96855.72;;;19.55;47.00
78073;BME280;67281;48.770;11.440;2023-05-16T08:57:07;96851.22;;;19.55;46.65
78073;BME280;67281;48.770;11.440;2023-05-16T08:59:35;96851.88;;;19.57;46.03
78073;BME280;67281;48.770;11.440;2023-05-16T09:02:03;96853.38;;;19.60;46.36
78073;BME280;67281;48.770;11.440;2023-05-16T09:04:31;96854.19;;;19.60;46.68
78073;BME280;67281;48.770;11.440;2023-05-16T09:06:58;96846.88;;;19.62;46.84
78073;BME280;67281;48.770;11.440;2023-05-16T09:09:25;96841.72;;;19.61;47.08
78073;BME280;67281;48.770;11.440;2023-05-16T09:11:51;96851.19;;;19.63;46.82
78073;BME280;67281;48.770;11.440;2023-05-16T09:14:18;96845.88;;;19.63;46.54
78073;BME280;67281;48.770;11.440;2023-05-16T09:17:02;96839.91;;;19.61;46.55
78073;BME280;67281;48.770;11.440;2023-05-16T09:19:36;96845.69;;;19.65;47.20
78073;BME280;67281;48.770;11.440;2023-05-16T09:22:06;96839.84;;;19.69;46.58
78073;BME280;67281;48.770;11.440;2023-05-16T09:24:38;96827.88;;;19.74;46.30
78073;BME280;67281;48.770;11.440;2023-05-16T09:27:14;96826.53;;;19.78;46.00
78073;BME280;67281;48.770;11.440;2023-05-16T09:29:41;96827.00;;;19.81;46.32
78073;BME280;67281;48.770;11.440;2023-05-16T09:32:11;96829.31;;;19.84;45.76
78073;BME280;67281;48.770;11.440;2023-05-16T09:34:42;96821.31;;;19.84;46.29
78073;BME280;67281;48.770;11.440;2023-05-16T09:37:10;96829.97;;;19.86;45.92
78073;BME280;67281;48.770;11.440;2023-05-16T09:39:45;96833.09;;;19.90;46.11
78073;BME280;67281;48.770;11.440;2023-05-16T09:42:13;96831.28;;;19.90;45.47
78073;BME280;67281;48.770;11.440;2023-05-16T09:44:44;96830.09;;;19.93;45.64
78073;BME280;67281;48.770;11.440;2023-05-16T09:47:19;96826.44;;;19.94;45.45
78073;BME280;67281;48.770;11.440;2023-05-16T09:49:51;96821.94;;;19.94;46.07
78073;BME280;67281;48.770;11.440;2023-05-16T09:52:18;96821.59;;;19.97;46.01
78073;BME280;67281;48.770;11.440;2023-05-16T09:54:46;96818.75;;;19.99;45.59
78073;BME280;67281;48.770;11.440;2023-05-16T09:57:20;96824.91;;;19.99;45.44
78073;BME280;67281;48.770;11.440;2023-05-16T09:59:52;96818.75;;;19.99;45.71
78073;BME280;67281;48.770;11.440;2023-05-16T10:02:19;96818.41;;;20.02;45.71
78073;BME280;67281;48.770;11.440;2023-05-16T10:04:46;96822.53;;;20.05;45.49
78073;BME280;67281;48.770;11.440;2023-05-16T10:07:13;96816.00;;;20.07;45.63
78073;BME280;67281;48.770;11.440;2023-05-16T10:09:42;96813.16;;;20.09;45.34
78073;BME280;67281;48.770;11.440;2023-05-16T10:12:12;96807.00;;;20.08;46.00
78073;BME280;67281;48.770;11.440;2023-05-16T10:14:41;96798.59;;;20.05;45.48
78073;BME280;67281;48.770;11.440;2023-05-16T10:17:11;96795.47;;;20.01;46.04
78073;BME280;67281;48.770;11.440;2023-05-16T10:19:39;96794.81;;;19.99;45.95
78073;BME280;67281;48.770;11.440;2023-05-16T10:22:08;96787.84;;;19.98;46.32
78073;BME280;67281;48.770;11.440;2023-05-16T10:24:47;96797.00;;;19.95;46.14
78073;BME280;67281;48.770;11.440;2023-05-16T10:27:17;96796.16;;;19.95;46.43
78073;BME280;67281;48.770;11.440;2023-05-16T10:29:44;96795.69;;;19.91;46.29
78073;BME280;67281;48.770;11.440;2023-05-16T10:32:22;96788.06;;;19.88;46.24
78073;BME280;67281;48.770;11.440;2023-05-16T10:34:49;96797.41;;;19.84;46.38
78073;BME280;67281;48.770;11.440;2023-05-16T10:37:16;96792.25;;;19.83;46.18
78073;BME280;67281;48.770;11.440;2023-05-16T10:39:44;96804.72;;;19.82;46.51
78073;BME280;67281;48.770;11.440;2023-05-16T10:42:12;96794.25;;;19.81;46.21
78073;BME280;67281;48.770;11.440;2023-05-16T10:44:43;96799.59;;;19.81;46.77
78073;BME280;67281;48.770;11.440;2023-05-16T10:47:23;96801.22;;;19.82;46.82
78073;BME280;67281;48.770;11.440;2023-05-16T10:49:52;96801.22;;;19.82;46.42
78073;BME280;67281;48.770;11.440;2023-05-16T10:52:19;96802.91;;;19.83;46.87
78073;BME280;67281;48.770;11.440;2023-05-16T10:54:50;96808.22;;;19.83;46.51
78073;BME280;67281;48.770;11.440;2023-05-16T10:57:18;96817.19;;;19.82;46.23
78073;BME280;67281;48.770;11.440;2023-05-16T10:59:49;96816.19;;;19.83;47.05
78073;BME280;67281;48.770;11.440;2023-05-16T11:02:27;96822.34;;;19.83;46.95
78073;BME280;67281;48.770;11.440;2023-05-16T11:04:56;96809.03;;;19.83;47.11
78073;BME280;67281;48.770;11.440;2023-05-16T11:07:30;96811.88;;;19.82;47.40
78073;BME280;67281;48.770;11.440;2023-05-16T11:10:09;96806.56;;;19.82;47.21
78073;BME280;67281;48.770;11.440;2023-05-16T11:12:49;96813.88;;;19.80;47.30
78073;BME280;67281;48.770;11.440;2023-05-16T11:17:45;96817.19;;;19.82;47.26
78073;BME280;67281;48.770;11.440;2023-05-16T11:20:29;96817.38;;;19.80;47.80
78073;BME280;67281;48.770;11.440;2023-05-16T11:23:26;96822.50;;;19.82;47.40
78073;BME280;67281;48.770;11.440;2023-05-16T11:25:55;96822.50;;;19.82;47.57
78073;BME280;67281;48.770;11.440;2023-05-16T11:28:25;96820.03;;;19.80;47.56
78073;BME280;67281;48.770;11.440;2023-05-16T11:30:55;96821.50;;;19.83;48.10
78073;BME280;67281;48.770;11.440;2023-05-16T11:33:23;96822.50;;;19.82;47.44
78073;BME280;67281;48.770;11.440;2023-05-16T11:36:03;96812.69;;;19.82;47.95
78073;BME280;67281;48.770;11.440;2023-05-16T11:38:41;96822.34;;;19.83;47.74
78073;BME280;67281;48.770;11.440;2023-05-16T11:41:09;96823.16;;;19.84;46.96
78073;BME280;67281;48.770;11.440;2023-05-16T11:43:41;96819.69;;;19.83;47.50
78073;BME280;67281;48.770;11.440;2023-05-16T11:46:14;96813.19;;;19.86;47.66
78073;BME280;67281;48.770;11.440;2023-05-16T11:48:42;96820.16;;;19.87;47.23
78073;BME280;67281;48.770;11.440;2023-05-16T11:51:11;96822.81;;;19.87;47.51
78073;BME280;67281;48.770;11.440;2023-05-16T11:53:40;96827.31;;;19.86;47.75
78073;BME280;67281;48.770;11.440;2023-05-16T11:56:07;96821.97;;;19.86;47.45
78073;BME280;67281;48.770;11.440;2023-05-16T11:58:34;96825.47;;;19.87;47.36
78073;BME280;67281;48.770;11.440;2023-05-16T12:01:03;96821.81;;;19.88;47.77
78073;BME280;67281;48.770;11.440;2023-05-16T12:03:31;96828.97;;;19.87;47.97
78073;BME280;67281;48.770;11.440;2023-05-16T12:06:01;96830.63;;;19.88;47.89
78073;BME280;67281;48.770;11.440;2023-05-16T12:08:28;96835.94;;;19.88;47.42
78073;BME280;67281;48.770;11.440;2023-05-16T12:10:56;96841.25;;;19.88;47.70
78073;BME280;67281;48.770;11.440;2023-05-16T12:13:23;96839.59;;;19.87;47.25
78073;BME280;67281;48.770;11.440;2023-05-16T12:15:51;96833.28;;;19.88;47.97
78073;BME280;67281;48.770;11.440;2023-05-16T12:18:18;96832.28;;;19.89;47.03
78073;BME280;67281;48.770;11.440;2023-05-16T12:20:47;96834.28;;;19.87;47.75
78073;BME280;67281;48.770;11.440;2023-05-16T12:23:14;96835.94;;;19.88;47.37
78073;BME280;67281;48.770;11.440;2023-05-16T12:25:45;96834.09;;;19.89;47.15
78073;BME280;67281;48.770;11.440;2023-05-16T12:28:14;96836.75;;;19.89;46.97
78073;BME280;67281;48.770;11.440;2023-05-16T12:30:43;96841.06;;;19.90;47.43
78073;BME280;67281;48.770;11.440;2023-05-16T12:33:11;96850.88;;;19.89;47.25
78073;BME280;67281;48.770;11.440;2023-05-16T12:35:41;96856.38;;;19.88;47.83
78073;BME280;67281;48.770;11.440;2023-05-16T12:38:13;96885.16;;;19.84;47.96
78073;BME280;67281;48.770;11.440;2023-05-16T12:40:41;96900.63;;;19.81;47.89
78073;BME280;67281;48.770;11.440;2023-05-16T12:45:39;96891.34;;;19.77;48.00
78073;BME280;67281;48.770;11.440;2023-05-16T12:48:12;96897.66;;;19.76;47.41
78073;BME280;67281;48.770;11.440;2023-05-16T12:50:40;96900.97;;;19.78;47.99
78073;BME280;67281;48.770;11.440;2023-05-16T12:53:11;96895.66;;;19.78;47.91
78073;BME280;67281;48.770;11.440;2023-05-16T12:55:40;96895.00;;;19.76;47.24
78073;BME280;67281;48.770;11.440;2023-05-16T12:58:08;96899.31;;;19.77;47.97
78073;BME280;67281;48.770;11.440;2023-05-16T13:00:35;96894.00;;;19.77;47.46
78073;BME280;67281;48.770;11.440;2023-05-16T13:03:04;96899.31;;;19.77;47.15
78073;BME280;67281;48.770;11.440;2023-05-16T13:05:32;96900.13;;;19.77;47.81
78073;BME280;67281;48.770;11.440;2023-05-16T13:07:59;96894.16;;;19.75;47.20
78073;BME280;67281;48.770;11.440;2023-05-16T13:10:25;96893.16;;;19.76;47.27
78073;BME280;67281;48.770;11.440;2023-05-16T13:12:53;96895.00;;;19.76;47.23
78073;BME280;67281;48.770;11.440;2023-05-16T13:15:23;96881.69;;;19.76;47.79
78073;BME280;67281;48.770;11.440;2023-05-16T13:17:51;96888.69;;;19.77;47.67